sensor_id;sensor_type;location;lat;lon;timestamp;P1;durP1;ratioP1;P2;durP2;ratioP2
70071;SDS011;57434;42.794;23.302;2023-10-08T00:00:10;9.40;;;2.40;;
70071;SDS011;57434;42.794;23.302;2023-10-08T00:01:11;11.57;;;2.40;;
70071;SDS011;57434;42.794;23.302;2023-10-08T00:02:13;6.80;;;2.70;;
70071;SDS011;57434;42.794;23.302;2023-10-08T00:03:15;7.32;;;2.42;;
70071;SDS011;57434;42.794;23.302;2023-10-08T00:04:17;7.18;;;1.80;;
70071;SDS011;57434;42.794;23.302;2023-10-08T00:05:18;7.10;;;2.33;;
70071;SDS011;57434;42.794;23.302;2023-10-08T00:06:20;8.23;;;2.72;;
70071;SDS011;57434;42.794;23.302;2023-10-08T00:07:22;7.88;;;2.47;;
70071;SDS011;57434;42.794;23.302;2023-10-08T00:08:24;9.52;;;2.20;;
70071;SDS011;57434;42.794;23.302;2023-10-08T00:09:25;6.10;;;2.10;;
70071;SDS011;57434;42.794;23.302;2023-10-08T00:10:27;7.40;;;2.33;;
70071;SDS011;57434;42.794;23.302;2023-10-08T00:11:28;7.50;;;2.10;;
70071;SDS011;57434;42.794;23.302;2023-10-08T00:12:30;6.88;;;2.20;;
70071;SDS011;57434;42.794;23.302;2023-10-08T00:13:32;7.40;;;2.10;;
70071;SDS011;57434;42.794;23.302;2023-10-08T00:14:34;10.18;;;2.40;;
70071;SDS011;57434;42.794;23.302;2023-10-08T00:15:36;7.40;;;2.30;;
70071;SDS011;57434;42.794;23.302;2023-10-08T00:16:37;8.40;;;2.67;;
70071;SDS011;57434;42.794;23.302;2023-10-08T00:17:39;10.38;;;1.95;;
70071;SDS011;57434;42.794;23.302;2023-10-08T00:18:41;8.98;;;2.42;;
70071;SDS011;57434;42.794;23.302;2023-10-08T00:19:43;7.33;;;2.10;;
70071;SDS011;57434;42.794;23.302;2023-10-08T00:20:44;6.20;;;1.73;;
70071;SDS011;57434;42.794;23.302;2023-10-08T00:21:46;6.93;;;2.40;;
70071;SDS011;57434;42.794;23.302;2023-10-08T00:22:47;7.57;;;2.28;;
70071;SDS011;57434;42.794;23.302;2023-10-08T00:23:49;6.25;;;1.70;;
70071;SDS011;57434;42.794;23.302;2023-10-08T00:24:50;6.00;;;1.80;;
70071;SDS011;57434;42.794;23.302;2023-10-08T00:25:53;7.22;;;2.25;;
70071;SDS011;57434;42.794;23.302;2023-10-08T00:26:54;5.90;;;1.42;;
70071;SDS011;57434;42.794;23.302;2023-10-08T00:27:56;7.60;;;1.83;;
70071;SDS011;57434;42.794;23.302;2023-10-08T00:29:01;6.93;;;1.90;;
70071;SDS011;57434;42.794;23.302;2023-10-08T00:30:03;7.70;;;2.37;;
70071;SDS011;57434;42.794;23.302;2023-10-08T00:31:05;7.10;;;1.88;;
70071;SDS011;57434;42.794;23.302;2023-10-08T00:32:07;5.95;;;1.33;;
70071;SDS011;57434;42.794;23.302;2023-10-08T00:33:08;7.10;;;2.33;;
70071;SDS011;57434;42.794;23.302;2023-10-08T00:34:11;7.50;;;2.00;;
70071;SDS011;57434;42.794;23.302;2023-10-08T00:35:13;7.25;;;2.20;;
70071;SDS011;57434;42.794;23.302;2023-10-08T00:36:15;6.55;;;2.00;;
70071;SDS011;57434;42.794;23.302;2023-10-08T00:37:16;7.40;;;1.90;;
70071;SDS011;57434;42.794;23.302;2023-10-08T00:38:18;8.38;;;1.92;;
70071;SDS011;57434;42.794;23.302;2023-10-08T00:39:19;11.13;;;2.17;;
70071;SDS011;57434;42.794;23.302;2023-10-08T00:40:21;9.57;;;2.10;;
70071;SDS011;57434;42.794;23.302;2023-10-08T00:41:23;6.70;;;1.90;;
70071;SDS011;57434;42.794;23.302;2023-10-08T00:42:25;13.85;;;2.22;;
70071;SDS011;57434;42.794;23.302;2023-10-08T00:43:30;4.82;;;1.67;;
70071;SDS011;57434;42.794;23.302;2023-10-08T00:44:31;6.85;;;1.90;;
70071;SDS011;57434;42.794;23.302;2023-10-08T00:45:33;7.75;;;2.08;;
70071;SDS011;57434;42.794;23.302;2023-10-08T00:46:35;6.65;;;1.70;;
70071;SDS011;57434;42.794;23.302;2023-10-08T00:47:36;7.50;;;1.92;;
70071;SDS011;57434;42.794;23.302;2023-10-08T00:48:38;6.55;;;1.75;;
70071;SDS011;57434;42.794;23.302;2023-10-08T00:49:40;5.65;;;1.75;;
70071;SDS011;57434;42.794;23.302;2023-10-08T00:50:42;10.70;;;1.87;;
70071;SDS011;57434;42.794;23.302;2023-10-08T00:51:44;6.35;;;1.77;;
70071;SDS011;57434;42.794;23.302;2023-10-08T00:52:47;6.75;;;1.60;;
70071;SDS011;57434;42.794;23.302;2023-10-08T00:54:11;6.82;;;1.88;;
70071;SDS011;57434;42.794;23.302;2023-10-08T00:55:11;8.90;;;1.55;;
70071;SDS011;57434;42.794;23.302;2023-10-08T00:56:13;9.82;;;2.30;;
70071;SDS011;57434;42.794;23.302;2023-10-08T00:57:18;6.88;;;1.75;;
70071;SDS011;57434;42.794;23.302;2023-10-08T00:58:21;8.60;;;1.92;;
70071;SDS011;57434;42.794;23.302;2023-10-08T00:59:23;7.80;;;2.08;;
70071;SDS011;57434;42.794;23.302;2023-10-08T01:00:25;5.20;;;1.63;;
70071;SDS011;57434;42.794;23.302;2023-10-08T01:01:26;5.80;;;1.83;;
70071;SDS011;57434;42.794;23.302;2023-10-08T01:02:30;7.50;;;2.17;;
70071;SDS011;57434;42.794;23.302;2023-10-08T01:03:32;6.47;;;2.20;;
70071;SDS011;57434;42.794;23.302;2023-10-08T01:04:33;8.20;;;2.30;;
70071;SDS011;57434;42.794;23.302;2023-10-08T01:05:35;11.52;;;2.85;;
70071;SDS011;57434;42.794;23.302;2023-10-08T01:06:37;4.80;;;1.17;;
70071;SDS011;57434;42.794;23.302;2023-10-08T01:07:39;7.18;;;2.00;;
70071;SDS011;57434;42.794;23.302;2023-10-08T01:08:41;5.03;;;1.77;;
70071;SDS011;57434;42.794;23.302;2023-10-08T01:09:43;5.40;;;2.05;;
70071;SDS011;57434;42.794;23.302;2023-10-08T01:10:44;6.55;;;2.03;;
70071;SDS011;57434;42.794;23.302;2023-10-08T01:11:50;7.37;;;1.77;;
70071;SDS011;57434;42.794;23.302;2023-10-08T01:13:07;7.95;;;1.85;;
70071;SDS011;57434;42.794;23.302;2023-10-08T01:14:09;5.30;;;1.75;;
70071;SDS011;57434;42.794;23.302;2023-10-08T01:15:11;4.88;;;1.65;;
70071;SDS011;57434;42.794;23.302;2023-10-08T01:16:13;5.53;;;1.83;;
70071;SDS011;57434;42.794;23.302;2023-10-08T01:17:15;6.15;;;1.80;;
70071;SDS011;57434;42.794;23.302;2023-10-08T01:18:17;7.32;;;2.42;;
70071;SDS011;57434;42.794;23.302;2023-10-08T01:19:19;5.25;;;1.63;;
70071;SDS011;57434;42.794;23.302;2023-10-08T01:21:39;7.07;;;2.08;;
70071;SDS011;57434;42.794;23.302;2023-10-08T01:22:41;6.70;;;1.87;;
70071;SDS011;57434;42.794;23.302;2023-10-08T01:23:44;6.30;;;2.08;;
70071;SDS011;57434;42.794;23.302;2023-10-08T01:24:46;5.85;;;1.80;;
70071;SDS011;57434;42.794;23.302;2023-10-08T01:25:48;7.28;;;1.85;;
70071;SDS011;57434;42.794;23.302;2023-10-08T01:26:50;6.78;;;2.08;;
70071;SDS011;57434;42.794;23.302;2023-10-08T01:27:55;8.27;;;1.80;;
70071;SDS011;57434;42.794;23.302;2023-10-08T01:28:58;7.32;;;1.80;;
70071;SDS011;57434;42.794;23.302;2023-10-08T01:30:01;7.40;;;1.98;;
70071;SDS011;57434;42.794;23.302;2023-10-08T01:31:03;7.20;;;1.92;;
70071;SDS011;57434;42.794;23.302;2023-10-08T01:32:05;7.10;;;2.03;;
70071;SDS011;57434;42.794;23.302;2023-10-08T01:33:06;5.90;;;1.80;;
70071;SDS011;57434;42.794;23.302;2023-10-08T01:34:08;8.93;;;2.40;;
70071;SDS011;57434;42.794;23.302;2023-10-08T01:35:10;6.95;;;2.15;;
70071;SDS011;57434;42.794;23.302;2023-10-08T01:36:11;6.35;;;1.75;;
70071;SDS011;57434;42.794;23.302;2023-10-08T01:37:14;9.18;;;2.50;;
70071;SDS011;57434;42.794;23.302;2023-10-08T01:38:15;6.50;;;2.30;;
70071;SDS011;57434;42.794;23.302;2023-10-08T01:39:17;6.32;;;1.90;;
70071;SDS011;57434;42.794;23.302;2023-10-08T01:40:19;7.25;;;2.30;;
70071;SDS011;57434;42.794;23.302;2023-10-08T01:41:21;6.93;;;1.80;;
70071;SDS011;57434;42.794;23.302;2023-10-08T01:42:23;8.95;;;2.25;;
70071;SDS011;57434;42.794;23.302;2023-10-08T01:43:25;6.67;;;2.33;;
70071;SDS011;57434;42.794;23.302;2023-10-08T01:44:27;6.05;;;1.80;;
70071;SDS011;57434;42.794;23.302;2023-10-08T01:45:29;6.53;;;2.10;;
70071;SDS011;57434;42.794;23.302;2023-10-08T01:46:30;5.53;;;1.85;;
70071;SDS011;57434;42.794;23.302;2023-10-08T01:47:32;5.57;;;1.92;;
70071;SDS011;57434;42.794;23.302;2023-10-08T01:48:34;7.00;;;2.28;;
70071;SDS011;57434;42.794;23.302;2023-10-08T01:49:36;6.70;;;2.15;;
70071;SDS011;57434;42.794;23.302;2023-10-08T01:50:38;7.32;;;2.13;;
70071;SDS011;57434;42.794;23.302;2023-10-08T01:51:39;4.68;;;1.45;;
70071;SDS011;57434;42.794;23.302;2023-10-08T01:52:41;8.85;;;2.13;;
70071;SDS011;57434;42.794;23.302;2023-10-08T01:53:43;6.60;;;2.20;;
70071;SDS011;57434;42.794;23.302;2023-10-08T01:54:44;5.88;;;1.85;;
70071;SDS011;57434;42.794;23.302;2023-10-08T01:55:46;5.60;;;1.70;;
70071;SDS011;57434;42.794;23.302;2023-10-08T01:56:48;4.97;;;1.60;;
70071;SDS011;57434;42.794;23.302;2023-10-08T01:57:50;7.30;;;1.73;;
70071;SDS011;57434;42.794;23.302;2023-10-08T01:58:52;5.85;;;1.73;;
70071;SDS011;57434;42.794;23.302;2023-10-08T01:59:54;7.00;;;1.85;;
70071;SDS011;57434;42.794;23.302;2023-10-08T02:02:42;6.32;;;2.13;;
70071;SDS011;57434;42.794;23.302;2023-10-08T02:03:44;8.13;;;2.30;;
70071;SDS011;57434;42.794;23.302;2023-10-08T02:04:46;7.27;;;2.07;;
70071;SDS011;57434;42.794;23.302;2023-10-08T02:05:48;7.05;;;2.20;;
70071;SDS011;57434;42.794;23.302;2023-10-08T02:06:50;5.78;;;1.90;;
70071;SDS011;57434;42.794;23.302;2023-10-08T02:07:52;6.40;;;1.90;;
70071;SDS011;57434;42.794;23.302;2023-10-08T02:08:53;5.65;;;1.88;;
70071;SDS011;57434;42.794;23.302;2023-10-08T02:09:55;5.80;;;1.85;;
70071;SDS011;57434;42.794;23.302;2023-10-08T02:10:57;6.93;;;2.55;;
70071;SDS011;57434;42.794;23.302;2023-10-08T02:11:59;6.07;;;1.88;;
70071;SDS011;57434;42.794;23.302;2023-10-08T02:13:00;10.85;;;2.45;;
70071;SDS011;57434;42.794;23.302;2023-10-08T02:14:02;7.32;;;2.50;;
70071;SDS011;57434;42.794;23.302;2023-10-08T02:15:04;7.43;;;2.20;;
70071;SDS011;57434;42.794;23.302;2023-10-08T02:16:06;6.70;;;2.25;;
70071;SDS011;57434;42.794;23.302;2023-10-08T02:17:08;7.22;;;2.55;;
70071;SDS011;57434;42.794;23.302;2023-10-08T02:18:11;8.30;;;2.50;;
70071;SDS011;57434;42.794;23.302;2023-10-08T02:19:13;5.68;;;1.90;;
70071;SDS011;57434;42.794;23.302;2023-10-08T02:20:15;6.00;;;2.00;;
70071;SDS011;57434;42.794;23.302;2023-10-08T02:21:16;7.68;;;2.33;;
70071;SDS011;57434;42.794;23.302;2023-10-08T02:22:18;5.72;;;1.88;;
70071;SDS011;57434;42.794;23.302;2023-10-08T02:23:20;5.28;;;1.90;;
70071;SDS011;57434;42.794;23.302;2023-10-08T02:24:22;7.18;;;2.30;;
70071;SDS011;57434;42.794;23.302;2023-10-08T02:25:23;7.57;;;2.10;;
70071;SDS011;57434;42.794;23.302;2023-10-08T02:26:25;5.97;;;2.30;;
70071;SDS011;57434;42.794;23.302;2023-10-08T02:27:27;6.13;;;2.00;;
70071;SDS011;57434;42.794;23.302;2023-10-08T02:28:29;9.20;;;2.20;;
70071;SDS011;57434;42.794;23.302;2023-10-08T02:29:31;6.88;;;2.22;;
70071;SDS011;57434;42.794;23.302;2023-10-08T02:30:33;6.65;;;2.60;;
70071;SDS011;57434;42.794;23.302;2023-10-08T02:31:34;6.85;;;2.30;;
70071;SDS011;57434;42.794;23.302;2023-10-08T02:32:36;6.55;;;1.83;;
70071;SDS011;57434;42.794;23.302;2023-10-08T02:33:38;6.63;;;1.70;;
70071;SDS011;57434;42.794;23.302;2023-10-08T02:34:40;6.20;;;2.47;;
70071;SDS011;57434;42.794;23.302;2023-10-08T02:35:45;7.73;;;2.10;;
70071;SDS011;57434;42.794;23.302;2023-10-08T02:36:47;5.97;;;2.08;;
70071;SDS011;57434;42.794;23.302;2023-10-08T02:37:49;7.15;;;2.05;;
70071;SDS011;57434;42.794;23.302;2023-10-08T02:38:51;5.90;;;2.03;;
70071;SDS011;57434;42.794;23.302;2023-10-08T02:39:53;8.10;;;2.08;;
70071;SDS011;57434;42.794;23.302;2023-10-08T02:40:54;7.72;;;2.10;;
70071;SDS011;57434;42.794;23.302;2023-10-08T02:41:56;7.15;;;2.08;;
70071;SDS011;57434;42.794;23.302;2023-10-08T02:42:57;8.65;;;2.22;;
70071;SDS011;57434;42.794;23.302;2023-10-08T02:43:59;6.93;;;1.90;;
70071;SDS011;57434;42.794;23.302;2023-10-08T02:45:01;5.50;;;1.92;;
70071;SDS011;57434;42.794;23.302;2023-10-08T02:46:03;7.53;;;2.13;;
70071;SDS011;57434;42.794;23.302;2023-10-08T02:47:04;6.80;;;2.08;;
70071;SDS011;57434;42.794;23.302;2023-10-08T02:48:07;6.43;;;2.33;;
70071;SDS011;57434;42.794;23.302;2023-10-08T02:49:09;7.85;;;2.55;;
70071;SDS011;57434;42.794;23.302;2023-10-08T02:50:12;8.18;;;2.72;;
70071;SDS011;57434;42.794;23.302;2023-10-08T02:51:13;7.57;;;2.35;;
70071;SDS011;57434;42.794;23.302;2023-10-08T02:52:15;6.47;;;2.20;;
70071;SDS011;57434;42.794;23.302;2023-10-08T02:53:17;7.65;;;2.30;;
70071;SDS011;57434;42.794;23.302;2023-10-08T02:54:19;8.25;;;2.20;;
70071;SDS011;57434;42.794;23.302;2023-10-08T02:55:22;6.80;;;2.28;;
70071;SDS011;57434;42.794;23.302;2023-10-08T02:56:24;9.07;;;2.27;;
70071;SDS011;57434;42.794;23.302;2023-10-08T02:57:25;6.35;;;2.25;;
70071;SDS011;57434;42.794;23.302;2023-10-08T02:58:27;8.43;;;2.30;;
70071;SDS011;57434;42.794;23.302;2023-10-08T02:59:29;8.30;;;1.98;;
70071;SDS011;57434;42.794;23.302;2023-10-08T03:00:32;8.18;;;2.42;;
70071;SDS011;57434;42.794;23.302;2023-10-08T03:01:34;6.80;;;2.10;;
70071;SDS011;57434;42.794;23.302;2023-10-08T03:02:36;6.85;;;2.15;;
70071;SDS011;57434;42.794;23.302;2023-10-08T03:03:40;8.93;;;2.85;;
70071;SDS011;57434;42.794;23.302;2023-10-08T03:04:44;9.05;;;2.72;;
70071;SDS011;57434;42.794;23.302;2023-10-08T03:05:48;8.32;;;2.50;;
70071;SDS011;57434;42.794;23.302;2023-10-08T03:06:51;5.83;;;2.10;;
70071;SDS011;57434;42.794;23.302;2023-10-08T03:07:52;7.72;;;2.28;;
70071;SDS011;57434;42.794;23.302;2023-10-08T03:08:54;7.57;;;2.55;;
70071;SDS011;57434;42.794;23.302;2023-10-08T03:09:56;7.82;;;2.90;;
70071;SDS011;57434;42.794;23.302;2023-10-08T03:10:57;7.30;;;2.42;;
70071;SDS011;57434;42.794;23.302;2023-10-08T03:11:59;7.57;;;2.15;;
70071;SDS011;57434;42.794;23.302;2023-10-08T03:13:01;7.82;;;2.95;;
70071;SDS011;57434;42.794;23.302;2023-10-08T03:14:03;6.60;;;2.00;;
70071;SDS011;57434;42.794;23.302;2023-10-08T03:15:05;7.85;;;2.67;;
70071;SDS011;57434;42.794;23.302;2023-10-08T03:16:07;6.88;;;2.35;;
70071;SDS011;57434;42.794;23.302;2023-10-08T03:17:09;7.73;;;2.47;;
70071;SDS011;57434;42.794;23.302;2023-10-08T03:18:11;7.65;;;2.05;;
70071;SDS011;57434;42.794;23.302;2023-10-08T03:19:13;7.40;;;2.70;;
70071;SDS011;57434;42.794;23.302;2023-10-08T03:20:15;7.15;;;2.15;;
70071;SDS011;57434;42.794;23.302;2023-10-08T03:21:17;7.65;;;2.60;;
70071;SDS011;57434;42.794;23.302;2023-10-08T03:22:21;5.78;;;1.90;;
70071;SDS011;57434;42.794;23.302;2023-10-08T03:23:23;6.72;;;2.22;;
70071;SDS011;57434;42.794;23.302;2023-10-08T03:24:25;9.57;;;2.55;;
70071;SDS011;57434;42.794;23.302;2023-10-08T03:25:27;8.32;;;2.60;;
70071;SDS011;57434;42.794;23.302;2023-10-08T03:26:28;6.28;;;1.90;;
70071;SDS011;57434;42.794;23.302;2023-10-08T03:27:30;10.10;;;2.47;;
70071;SDS011;57434;42.794;23.302;2023-10-08T03:28:32;6.10;;;2.30;;
70071;SDS011;57434;42.794;23.302;2023-10-08T03:29:34;7.50;;;2.08;;
70071;SDS011;57434;42.794;23.302;2023-10-08T03:30:36;7.20;;;1.98;;
70071;SDS011;57434;42.794;23.302;2023-10-08T03:31:38;6.32;;;2.70;;
70071;SDS011;57434;42.794;23.302;2023-10-08T03:32:42;12.25;;;1.95;;
70071;SDS011;57434;42.794;23.302;2023-10-08T03:33:44;8.93;;;2.53;;
70071;SDS011;57434;42.794;23.302;2023-10-08T03:34:46;7.82;;;2.30;;
70071;SDS011;57434;42.794;23.302;2023-10-08T03:35:49;7.07;;;2.20;;
70071;SDS011;57434;42.794;23.302;2023-10-08T03:36:51;6.15;;;1.92;;
70071;SDS011;57434;42.794;23.302;2023-10-08T03:37:53;6.10;;;2.20;;
70071;SDS011;57434;42.794;23.302;2023-10-08T03:38:55;7.95;;;2.35;;
70071;SDS011;57434;42.794;23.302;2023-10-08T03:39:57;6.30;;;1.92;;
70071;SDS011;57434;42.794;23.302;2023-10-08T03:40:59;11.05;;;2.30;;
70071;SDS011;57434;42.794;23.302;2023-10-08T03:42:00;8.38;;;2.53;;
70071;SDS011;57434;42.794;23.302;2023-10-08T03:43:02;12.50;;;2.15;;
70071;SDS011;57434;42.794;23.302;2023-10-08T03:44:04;6.43;;;2.03;;
70071;SDS011;57434;42.794;23.302;2023-10-08T03:45:06;8.40;;;2.17;;
70071;SDS011;57434;42.794;23.302;2023-10-08T03:46:09;8.30;;;2.00;;
70071;SDS011;57434;42.794;23.302;2023-10-08T03:47:10;10.18;;;2.05;;
70071;SDS011;57434;42.794;23.302;2023-10-08T03:48:13;6.37;;;2.07;;
70071;SDS011;57434;42.794;23.302;2023-10-08T03:49:14;8.30;;;2.17;;
70071;SDS011;57434;42.794;23.302;2023-10-08T03:50:17;8.50;;;2.88;;
70071;SDS011;57434;42.794;23.302;2023-10-08T03:51:18;8.82;;;2.70;;
70071;SDS011;57434;42.794;23.302;2023-10-08T03:52:20;7.28;;;1.90;;
70071;SDS011;57434;42.794;23.302;2023-10-08T03:53:22;8.50;;;2.20;;
70071;SDS011;57434;42.794;23.302;2023-10-08T03:54:24;6.47;;;2.10;;
70071;SDS011;57434;42.794;23.302;2023-10-08T03:55:26;6.65;;;2.10;;
70071;SDS011;57434;42.794;23.302;2023-10-08T03:56:28;9.13;;;2.13;;
70071;SDS011;57434;42.794;23.302;2023-10-08T03:57:30;7.65;;;2.38;;
70071;SDS011;57434;42.794;23.302;2023-10-08T03:58:31;7.33;;;2.40;;
70071;SDS011;57434;42.794;23.302;2023-10-08T03:59:33;9.30;;;2.90;;
70071;SDS011;57434;42.794;23.302;2023-10-08T04:00:35;7.43;;;2.85;;
70071;SDS011;57434;42.794;23.302;2023-10-08T04:01:37;7.63;;;2.58;;
70071;SDS011;57434;42.794;23.302;2023-10-08T04:02:39;7.32;;;2.45;;
70071;SDS011;57434;42.794;23.302;2023-10-08T04:03:41;8.18;;;2.63;;
70071;SDS011;57434;42.794;23.302;2023-10-08T04:04:43;6.13;;;2.60;;
70071;SDS011;57434;42.794;23.302;2023-10-08T04:05:45;9.20;;;2.28;;
70071;SDS011;57434;42.794;23.302;2023-10-08T04:06:47;6.05;;;2.00;;
70071;SDS011;57434;42.794;23.302;2023-10-08T04:07:48;9.00;;;2.67;;
70071;SDS011;57434;42.794;23.302;2023-10-08T04:08:50;8.70;;;2.40;;
70071;SDS011;57434;42.794;23.302;2023-10-08T04:09:52;6.38;;;2.47;;
70071;SDS011;57434;42.794;23.302;2023-10-08T04:10:54;7.95;;;2.42;;
70071;SDS011;57434;42.794;23.302;2023-10-08T04:11:56;6.05;;;2.10;;
70071;SDS011;57434;42.794;23.302;2023-10-08T04:13:00;7.68;;;2.70;;
70071;SDS011;57434;42.794;23.302;2023-10-08T04:14:02;7.45;;;2.65;;
70071;SDS011;57434;42.794;23.302;2023-10-08T04:15:04;7.13;;;2.70;;
70071;SDS011;57434;42.794;23.302;2023-10-08T04:16:07;9.13;;;2.17;;
70071;SDS011;57434;42.794;23.302;2023-10-08T04:17:10;7.20;;;2.40;;
70071;SDS011;57434;42.794;23.302;2023-10-08T04:18:12;7.50;;;2.53;;
70071;SDS011;57434;42.794;23.302;2023-10-08T04:19:14;6.80;;;2.40;;
70071;SDS011;57434;42.794;23.302;2023-10-08T04:20:15;6.93;;;2.50;;
70071;SDS011;57434;42.794;23.302;2023-10-08T04:21:18;6.93;;;2.60;;
70071;SDS011;57434;42.794;23.302;2023-10-08T04:22:20;7.63;;;2.13;;
70071;SDS011;57434;42.794;23.302;2023-10-08T04:23:21;10.52;;;2.90;;
70071;SDS011;57434;42.794;23.302;2023-10-08T04:24:25;7.35;;;2.55;;
70071;SDS011;57434;42.794;23.302;2023-10-08T04:25:27;6.63;;;2.60;;
70071;SDS011;57434;42.794;23.302;2023-10-08T04:26:30;7.55;;;2.55;;
70071;SDS011;57434;42.794;23.302;2023-10-08T04:27:33;7.95;;;2.50;;
70071;SDS011;57434;42.794;23.302;2023-10-08T04:28:35;6.50;;;2.40;;
70071;SDS011;57434;42.794;23.302;2023-10-08T04:29:36;8.57;;;2.50;;
70071;SDS011;57434;42.794;23.302;2023-10-08T04:30:38;6.40;;;2.13;;
70071;SDS011;57434;42.794;23.302;2023-10-08T04:31:40;8.13;;;2.30;;
70071;SDS011;57434;42.794;23.302;2023-10-08T04:32:42;10.77;;;2.42;;
70071;SDS011;57434;42.794;23.302;2023-10-08T04:33:44;6.40;;;2.50;;
70071;SDS011;57434;42.794;23.302;2023-10-08T04:34:46;7.07;;;2.45;;
70071;SDS011;57434;42.794;23.302;2023-10-08T04:35:47;8.60;;;2.22;;
70071;SDS011;57434;42.794;23.302;2023-10-08T04:36:50;7.20;;;2.17;;
70071;SDS011;57434;42.794;23.302;2023-10-08T04:37:52;11.38;;;2.20;;
70071;SDS011;57434;42.794;23.302;2023-10-08T04:38:53;6.68;;;2.28;;
70071;SDS011;57434;42.794;23.302;2023-10-08T04:39:55;8.03;;;2.40;;
70071;SDS011;57434;42.794;23.302;2023-10-08T04:40:57;6.28;;;2.17;;
70071;SDS011;57434;42.794;23.302;2023-10-08T04:41:59;8.77;;;2.30;;
70071;SDS011;57434;42.794;23.302;2023-10-08T04:43:01;7.22;;;2.10;;
70071;SDS011;57434;42.794;23.302;2023-10-08T04:44:05;6.20;;;2.10;;
70071;SDS011;57434;42.794;23.302;2023-10-08T04:45:07;7.88;;;2.42;;
70071;SDS011;57434;42.794;23.302;2023-10-08T04:46:09;8.73;;;2.17;;
70071;SDS011;57434;42.794;23.302;2023-10-08T04:47:11;8.93;;;2.75;;
70071;SDS011;57434;42.794;23.302;2023-10-08T04:48:13;7.57;;;2.58;;
70071;SDS011;57434;42.794;23.302;2023-10-08T04:49:14;9.40;;;2.97;;
70071;SDS011;57434;42.794;23.302;2023-10-08T04:50:17;6.40;;;2.13;;
70071;SDS011;57434;42.794;23.302;2023-10-08T04:51:18;7.53;;;2.78;;
70071;SDS011;57434;42.794;23.302;2023-10-08T04:52:20;8.88;;;2.53;;
70071;SDS011;57434;42.794;23.302;2023-10-08T04:53:22;9.20;;;2.60;;
70071;SDS011;57434;42.794;23.302;2023-10-08T04:54:27;12.68;;;2.63;;
70071;SDS011;57434;42.794;23.302;2023-10-08T04:55:29;7.53;;;2.25;;
70071;SDS011;57434;42.794;23.302;2023-10-08T04:56:30;6.40;;;2.45;;
70071;SDS011;57434;42.794;23.302;2023-10-08T04:57:32;8.05;;;2.30;;
70071;SDS011;57434;42.794;23.302;2023-10-08T04:58:34;7.07;;;2.63;;
70071;SDS011;57434;42.794;23.302;2023-10-08T04:59:36;6.07;;;1.92;;
70071;SDS011;57434;42.794;23.302;2023-10-08T05:00:38;6.40;;;2.03;;
70071;SDS011;57434;42.794;23.302;2023-10-08T05:01:40;8.32;;;2.47;;
70071;SDS011;57434;42.794;23.302;2023-10-08T05:02:41;7.97;;;2.10;;
70071;SDS011;57434;42.794;23.302;2023-10-08T05:03:47;8.30;;;2.83;;
70071;SDS011;57434;42.794;23.302;2023-10-08T05:04:50;7.78;;;2.75;;
70071;SDS011;57434;42.794;23.302;2023-10-08T05:05:52;8.20;;;2.75;;
70071;SDS011;57434;42.794;23.302;2023-10-08T05:06:54;6.85;;;2.55;;
70071;SDS011;57434;42.794;23.302;2023-10-08T05:07:55;7.47;;;2.83;;
70071;SDS011;57434;42.794;23.302;2023-10-08T05:08:57;9.90;;;2.33;;
70071;SDS011;57434;42.794;23.302;2023-10-08T05:09:59;8.73;;;2.90;;
70071;SDS011;57434;42.794;23.302;2023-10-08T05:11:01;6.23;;;2.63;;
70071;SDS011;57434;42.794;23.302;2023-10-08T05:12:03;7.82;;;2.80;;
70071;SDS011;57434;42.794;23.302;2023-10-08T05:13:05;11.07;;;3.03;;
70071;SDS011;57434;42.794;23.302;2023-10-08T05:14:07;9.30;;;3.17;;
70071;SDS011;57434;42.794;23.302;2023-10-08T05:15:08;9.02;;;2.65;;
70071;SDS011;57434;42.794;23.302;2023-10-08T05:16:10;10.48;;;2.90;;
70071;SDS011;57434;42.794;23.302;2023-10-08T05:17:13;9.68;;;3.10;;
70071;SDS011;57434;42.794;23.302;2023-10-08T05:18:15;8.68;;;2.80;;
70071;SDS011;57434;42.794;23.302;2023-10-08T05:19:17;8.25;;;2.78;;
70071;SDS011;57434;42.794;23.302;2023-10-08T05:20:19;8.55;;;2.83;;
70071;SDS011;57434;42.794;23.302;2023-10-08T05:21:21;7.83;;;2.73;;
70071;SDS011;57434;42.794;23.302;2023-10-08T05:22:23;9.90;;;3.47;;
70071;SDS011;57434;42.794;23.302;2023-10-08T05:23:25;8.65;;;3.33;;
70071;SDS011;57434;42.794;23.302;2023-10-08T05:24:27;18.23;;;2.97;;
70071;SDS011;57434;42.794;23.302;2023-10-08T05:25:29;7.57;;;2.78;;
70071;SDS011;57434;42.794;23.302;2023-10-08T05:26:31;8.15;;;3.28;;
70071;SDS011;57434;42.794;23.302;2023-10-08T05:27:33;12.10;;;2.90;;
70071;SDS011;57434;42.794;23.302;2023-10-08T05:28:37;8.00;;;2.38;;
70071;SDS011;57434;42.794;23.302;2023-10-08T05:29:39;6.60;;;2.78;;
70071;SDS011;57434;42.794;23.302;2023-10-08T05:30:41;6.97;;;2.83;;
70071;SDS011;57434;42.794;23.302;2023-10-08T05:31:42;10.47;;;2.80;;
70071;SDS011;57434;42.794;23.302;2023-10-08T05:32:44;7.88;;;2.53;;
70071;SDS011;57434;42.794;23.302;2023-10-08T05:33:46;6.25;;;2.78;;
70071;SDS011;57434;42.794;23.302;2023-10-08T05:34:47;7.03;;;2.75;;
70071;SDS011;57434;42.794;23.302;2023-10-08T05:35:49;8.32;;;3.05;;
70071;SDS011;57434;42.794;23.302;2023-10-08T05:36:51;7.38;;;2.75;;
70071;SDS011;57434;42.794;23.302;2023-10-08T05:37:53;8.95;;;3.40;;
70071;SDS011;57434;42.794;23.302;2023-10-08T05:38:55;8.48;;;2.97;;
70071;SDS011;57434;42.794;23.302;2023-10-08T05:39:57;13.18;;;3.42;;
70071;SDS011;57434;42.794;23.302;2023-10-08T05:41:00;18.48;;;3.15;;
70071;SDS011;57434;42.794;23.302;2023-10-08T05:42:01;7.90;;;3.73;;
70071;SDS011;57434;42.794;23.302;2023-10-08T05:43:03;11.48;;;3.90;;
70071;SDS011;57434;42.794;23.302;2023-10-08T05:44:05;12.15;;;5.25;;
70071;SDS011;57434;42.794;23.302;2023-10-08T05:45:08;11.98;;;4.70;;
70071;SDS011;57434;42.794;23.302;2023-10-08T05:46:11;21.00;;;4.68;;
70071;SDS011;57434;42.794;23.302;2023-10-08T05:47:16;16.48;;;4.15;;
70071;SDS011;57434;42.794;23.302;2023-10-08T05:48:18;11.65;;;3.40;;
70071;SDS011;57434;42.794;23.302;2023-10-08T05:49:22;16.27;;;3.60;;
70071;SDS011;57434;42.794;23.302;2023-10-08T05:50:24;10.93;;;3.08;;
70071;SDS011;57434;42.794;23.302;2023-10-08T05:51:26;11.93;;;3.55;;
70071;SDS011;57434;42.794;23.302;2023-10-08T05:52:29;14.37;;;4.40;;
70071;SDS011;57434;42.794;23.302;2023-10-08T05:53:31;19.02;;;3.42;;
70071;SDS011;57434;42.794;23.302;2023-10-08T05:54:33;10.43;;;3.85;;
70071;SDS011;57434;42.794;23.302;2023-10-08T05:55:34;11.13;;;3.60;;
70071;SDS011;57434;42.794;23.302;2023-10-08T05:56:37;11.07;;;4.45;;
70071;SDS011;57434;42.794;23.302;2023-10-08T05:57:39;11.43;;;3.20;;
70071;SDS011;57434;42.794;23.302;2023-10-08T05:58:41;8.98;;;3.42;;
70071;SDS011;57434;42.794;23.302;2023-10-08T05:59:43;10.15;;;2.30;;
70071;SDS011;57434;42.794;23.302;2023-10-08T06:00:46;15.68;;;3.78;;
70071;SDS011;57434;42.794;23.302;2023-10-08T06:01:48;10.48;;;3.25;;
70071;SDS011;57434;42.794;23.302;2023-10-08T06:02:50;17.97;;;6.67;;
70071;SDS011;57434;42.794;23.302;2023-10-08T06:03:52;10.32;;;3.22;;
70071;SDS011;57434;42.794;23.302;2023-10-08T06:04:54;8.73;;;2.80;;
70071;SDS011;57434;42.794;23.302;2023-10-08T06:05:59;10.10;;;2.88;;
70071;SDS011;57434;42.794;23.302;2023-10-08T06:07:01;9.48;;;2.40;;
70071;SDS011;57434;42.794;23.302;2023-10-08T06:08:03;8.45;;;2.40;;
70071;SDS011;57434;42.794;23.302;2023-10-08T06:09:06;6.95;;;2.40;;
70071;SDS011;57434;42.794;23.302;2023-10-08T06:10:07;8.77;;;2.95;;
70071;SDS011;57434;42.794;23.302;2023-10-08T06:11:09;14.23;;;2.92;;